Time;durP1;ratioP1;P1;durP2;ratioP2;P2;SDS_P1;SDS_P2;PMS_P1;PMS_P2;Temp;Humidity;BMP_temperature;BMP_pressure;BME280_temperature;BME280_humidity;BME280_pressure;Samples;Min_cycle;Max_cycle;Signal;HPM_P1;HPM_P2
2023/12/28 00:02:10;;;;;;;3.33;1.33;;;;;;;7.54;100.00;100280.63;6050527;28;20072;-73
2023/12/28 00:05:08;;;;;;;4.68;1.30;;;;;;;7.48;100.00;100294.38;6047925;28;20045;-72
2023/12/28 00:08:04;;;;;;;3.45;1.30;;;;;;;7.58;100.00;100313.72;6046994;28;20021;-73
2023/12/28 00:10:59;;;;;;;3.25;1.00;;;;;;;7.61;100.00;100316.06;6050428;28;20033;-72
2023/12/28 00:13:55;;;;;;;4.23;1.50;;;;;;;7.66;100.00;100317.31;6049555;28;20088;-72
2023/12/28 00:16:50;;;;;;;3.47;1.10;;;;;;;7.73;100.00;100314.97;6049379;28;20025;-73
2023/12/28 00:19:46;;;;;;;4.07;1.10;;;;;;;7.76;100.00;100301.50;6050418;28;20295;-72
2023/12/28 00:22:41;;;;;;;3.15;1.10;;;;;;;7.79;100.00;100312.63;6049784;28;20113;-73
2023/12/28 00:25:36;;;;;;;6.75;1.60;;;;;;;7.82;100.00;100298.31;6049224;28;20080;-73
2023/12/28 00:28:32;;;;;;;2.50;1.00;;;;;;;7.78;100.00;100289.81;6046641;28;20026;-73
2023/12/28 00:31:27;;;;;;;3.93;1.10;;;;;;;7.89;100.00;100291.50;6049293;28;20641;-73
2023/12/28 00:34:22;;;;;;;3.40;1.20;;;;;;;7.97;100.00;100265.22;6049496;28;20299;-72
2023/12/28 00:37:18;;;;;;;2.20;1.20;;;;;;;8.05;100.00;100275.91;6056564;28;20076;-72
2023/12/28 00:40:13;;;;;;;3.53;1.07;;;;;;;8.05;100.00;100297.03;6060948;28;20032;-73
2023/12/28 00:43:08;;;;;;;3.35;1.10;;;;;;;8.23;99.56;100327.06;6057419;28;20038;-72
2023/12/28 00:46:04;;;;;;;2.00;1.00;;;;;;;8.40;97.88;100330.00;6057939;28;20528;-72
2023/12/28 00:48:59;;;;;;;2.47;1.17;;;;;;;8.32;98.58;100330.69;6063524;28;20029;-72
2023/12/28 00:51:54;;;;;;;3.50;1.20;;;;;;;8.37;98.73;100354.84;6058768;28;20037;-73
2023/12/28 00:54:50;;;;;;;4.13;1.10;;;;;;;8.35;98.59;100336.53;6059210;28;20033;-73
2023/12/28 00:57:53;;;;;;;1.77;0.90;;;;;;;8.37;100.00;100347.78;6057594;28;20120;-73
2023/12/28 01:00:48;;;;;;;3.42;1.10;;;;;;;8.38;100.00;100346.81;6065154;28;20969;-73
2023/12/28 01:03:43;;;;;;;3.20;1.08;;;;;;;8.41;100.00;100368.63;6058747;28;20358;-72
2023/12/28 01:06:39;;;;;;;3.87;1.23;;;;;;;8.45;100.00;100372.69;6052916;28;20049;-72
2023/12/28 01:09:34;;;;;;;2.07;1.07;;;;;;;8.55;100.00;100363.75;6058374;28;20022;-72
2023/12/28 01:12:29;;;;;;;3.30;0.87;;;;;;;8.62;100.00;100369.28;6069560;28;20034;-72
2023/12/28 01:15:25;;;;;;;2.97;0.80;;;;;;;8.68;100.00;100368.72;6058480;28;20065;-73
2023/12/28 01:18:20;;;;;;;2.13;1.07;;;;;;;8.79;100.00;100371.22;6054230;28;20030;-72
2023/12/28 01:21:15;;;;;;;2.85;1.08;;;;;;;8.67;100.00;100381.09;6067497;28;20029;-72
2023/12/28 01:24:11;;;;;;;2.20;1.00;;;;;;;8.69;100.00;100388.91;6060001;28;20048;-73
2023/12/28 01:27:11;;;;;;;2.63;1.30;;;;;;;8.54;100.00;100395.59;6062508;28;20318;-73
2023/12/28 01:30:07;;;;;;;2.85;1.15;;;;;;;8.35;100.00;100396.44;6033753;28;20033;-72
2023/12/28 01:33:02;;;;;;;2.95;1.25;;;;;;;8.15;100.00;100418.53;6059075;28;20179;-73
2023/12/28 01:35:58;;;;;;;3.42;1.20;;;;;;;8.00;100.00;100412.81;6059208;28;20038;-72
2023/12/28 01:38:53;;;;;;;2.73;1.33;;;;;;;7.88;100.00;100413.88;6064602;28;20080;-73
2023/12/28 01:41:48;;;;;;;1.73;0.90;;;;;;;7.76;100.00;100422.91;6057789;28;20025;-72
2023/12/28 01:44:44;;;;;;;4.20;1.10;;;;;;;7.66;100.00;100433.41;6056063;28;20073;-72
2023/12/28 01:47:39;;;;;;;5.00;1.17;;;;;;;7.68;100.00;100425.38;6062133;28;20489;-72
2023/12/28 01:50:35;;;;;;;3.03;1.02;;;;;;;7.70;100.00;100412.88;6065706;28;20265;-72
2023/12/28 01:53:30;;;;;;;3.65;1.30;;;;;;;7.88;100.00;100415.72;6081834;28;20032;-73
2023/12/28 01:56:26;;;;;;;3.17;1.30;;;;;;;7.84;100.00;100415.13;6058965;28;20440;-72
2023/12/28 01:59:21;;;;;;;2.22;1.20;;;;;;;7.94;100.00;100409.84;6063765;28;20367;-72
2023/12/28 02:02:17;;;;;;;3.95;1.20;;;;;;;7.93;100.00;100401.13;6069045;28;20032;-73
2023/12/28 02:05:12;;;;;;;4.73;1.30;;;;;;;7.89;100.00;100399.72;6050216;28;20057;-73
2023/12/28 02:08:08;;;;;;;4.00;1.27;;;;;;;7.98;100.00;100409.47;6064922;28;20367;-72
2023/12/28 02:11:03;;;;;;;4.07;1.38;;;;;;;8.09;100.00;100404.06;6054559;28;20484;-73
2023/12/28 02:13:59;;;;;;;2.88;1.10;;;;;;;8.13;100.00;100407.25;6051915;28;20519;-73
2023/12/28 02:17:01;;;;;;;2.45;1.25;;;;;;;8.03;100.00;100385.28;6075439;28;20029;-73
2023/12/28 02:19:58;;;;;;;3.03;1.17;;;;;;;8.17;100.00;100408.66;6064512;28;20068;-73
2023/12/28 02:22:55;;;;;;;3.85;1.10;;;;;;;8.16;100.00;100405.16;6069459;28;20061;-72
2023/12/28 02:25:51;;;;;;;2.33;1.20;;;;;;;8.22;100.00;100380.84;6047804;28;20120;-72
2023/12/28 02:28:46;;;;;;;5.57;1.00;;;;;;;8.24;100.00;100397.38;6067873;28;20052;-73
2023/12/28 02:32:07;;;;;;;3.15;1.10;;;;;;;8.29;100.00;100411.03;6062188;28;20109;-72
2023/12/28 02:35:11;;;;;;;2.08;1.13;;;;;;;8.25;100.00;100409.63;6058805;28;20042;-72
2023/12/28 02:38:09;;;;;;;2.22;1.05;;;;;;;8.23;100.00;100416.88;6062571;28;20036;-73
2023/12/28 02:41:04;;;;;;;3.10;1.30;;;;;;;8.22;100.00;100412.53;6059914;28;20436;-73
2023/12/28 02:44:00;;;;;;;1.98;0.95;;;;;;;8.21;100.00;100405.59;6057210;28;20034;-72
2023/12/28 02:46:55;;;;;;;2.67;1.10;;;;;;;8.23;100.00;100416.88;6070415;28;20056;-72
2023/12/28 02:49:50;;;;;;;2.95;1.40;;;;;;;8.13;100.00;100416.00;6065642;28;20279;-72
2023/12/28 02:52:46;;;;;;;4.47;1.30;;;;;;;8.16;100.00;100430.75;6063902;28;20108;-72
2023/12/28 02:55:41;;;;;;;2.33;1.03;;;;;;;8.16;100.00;100436.03;6057876;28;20034;-73
2023/12/28 02:58:36;;;;;;;2.57;1.27;;;;;;;8.14;100.00;100438.81;6056728;28;20315;-72
2023/12/28 03:01:32;;;;;;;2.20;1.17;;;;;;;8.13;100.00;100409.88;6060044;28;20264;-71
2023/12/28 03:04:27;;;;;;;3.67;1.23;;;;;;;8.09;100.00;100414.63;6067768;28;20080;-72
2023/12/28 03:07:22;;;;;;;6.47;1.40;;;;;;;8.11;100.00;100417.97;6051505;28;20040;-72
2023/12/28 03:10:18;;;;;;;3.13;1.40;;;;;;;8.03;100.00;100441.56;6066962;28;20052;-73
2023/12/28 03:13:13;;;;;;;3.07;1.17;;;;;;;8.03;100.00;100440.72;6066659;28;20045;-72
2023/12/28 03:16:08;;;;;;;4.80;1.60;;;;;;;8.00;100.00;100441.84;6064470;28;20268;-73
2023/12/28 03:19:04;;;;;;;2.97;1.30;;;;;;;7.98;100.00;100429.75;6061167;28;20025;-72
2023/12/28 03:21:59;;;;;;;4.47;1.50;;;;;;;8.03;100.00;100446.84;6054573;28;20029;-73
2023/12/28 03:24:54;;;;;;;2.90;1.33;;;;;;;7.99;100.00;100434.06;6052485;28;20021;-72
2023/12/28 03:27:49;;;;;;;3.87;1.47;;;;;;;7.96;100.00;100421.97;6053632;28;20025;-73
2023/12/28 03:30:45;;;;;;;5.30;1.80;;;;;;;8.00;100.00;100415.44;6053212;28;20060;-73
2023/12/28 03:33:40;;;;;;;3.20;1.40;;;;;;;7.94;100.00;100421.25;6053251;28;20065;-73
2023/12/28 03:36:35;;;;;;;3.13;1.43;;;;;;;7.91;100.00;100426.81;6051367;28;20049;-72
2023/12/28 03:39:31;;;;;;;2.77;1.40;;;;;;;7.88;100.00;100421.78;6052477;28;20762;-73
2023/12/28 03:42:26;;;;;;;3.25;1.40;;;;;;;7.92;100.00;100423.22;6053766;28;20401;-73
2023/12/28 03:45:22;;;;;;;2.60;1.40;;;;;;;7.91;100.00;100421.53;6053614;28;20037;-72
2023/12/28 03:48:17;;;;;;;3.33;1.50;;;;;;;7.94;100.00;100417.78;6052660;28;20022;-72
2023/12/28 03:51:16;;;;;;;4.33;1.83;;;;;;;7.88;100.00;100416.53;6052434;28;20042;-73
2023/12/28 03:54:11;;;;;;;2.22;1.23;;;;;;;7.97;100.00;100418.34;6052406;28;20038;-72
2023/12/28 03:57:07;;;;;;;4.07;1.45;;;;;;;7.98;100.00;100424.47;6048097;28;20496;-72
2023/12/28 04:00:02;;;;;;;11.63;1.83;;;;;;;8.01;100.00;100422.41;6053645;28;20036;-73
2023/12/28 04:02:59;;;;;;;5.45;1.65;;;;;;;8.07;100.00;100416.56;6052922;28;20033;-72
2023/12/28 04:05:54;;;;;;;4.25;1.42;;;;;;;8.08;100.00;100434.06;6051188;28;20038;-72
2023/12/28 04:08:50;;;;;;;8.30;2.00;;;;;;;8.08;100.00;100423.50;6052515;28;20115;-72
2023/12/28 04:11:45;;;;;;;3.87;1.40;;;;;;;8.07;100.00;100423.66;6051331;28;20512;-72
2023/12/28 04:14:40;;;;;;;4.50;1.50;;;;;;;8.10;100.00;100440.03;6049723;28;20038;-72
2023/12/28 04:17:36;;;;;;;2.70;1.20;;;;;;;8.10;100.00;100423.38;6052533;28;20022;-73
2023/12/28 04:20:31;;;;;;;3.53;1.43;;;;;;;8.16;100.00;100415.75;6051651;28;20205;-73
2023/12/28 04:23:26;;;;;;;4.17;0.93;;;;;;;8.18;100.00;100419.06;6053712;28;20385;-73
2023/12/28 04:26:22;;;;;;;3.57;1.43;;;;;;;8.14;100.00;100417.69;6052173;28;20056;-73
2023/12/28 04:29:17;;;;;;;3.45;1.85;;;;;;;8.18;100.00;100423.53;6052609;28;20308;-73
2023/12/28 04:32:12;;;;;;;3.50;1.58;;;;;;;8.22;100.00;100428.41;6050048;28;20022;-73
2023/12/28 04:35:08;;;;;;;6.37;1.40;;;;;;;8.28;100.00;100430.53;6049102;28;20037;-73
2023/12/28 04:38:03;;;;;;;2.92;1.35;;;;;;;8.28;100.00;100419.97;6052676;28;20026;-72
2023/12/28 04:40:59;;;;;;;3.97;1.50;;;;;;;8.21;100.00;100418.78;6052068;28;20025;-73
2023/12/28 04:43:55;;;;;;;2.13;1.20;;;;;;;8.25;100.00;100425.47;6049555;28;20037;-73
2023/12/28 04:46:50;;;;;;;4.13;1.57;;;;;;;8.33;100.00;100428.31;6050237;28;20105;-72
2023/12/28 04:49:45;;;;;;;4.73;1.33;;;;;;;8.35;100.00;100422.84;6051572;28;20280;-72
2023/12/28 04:52:40;;;;;;;6.27;1.53;;;;;;;8.32;100.00;100429.25;6047529;28;20104;-72
2023/12/28 04:55:36;;;;;;;3.97;1.35;;;;;;;8.24;100.00;100417.69;6048783;28;20030;-73
2023/12/28 04:58:31;;;;;;;3.08;1.25;;;;;;;8.34;100.00;100435.22;6052098;28;20438;-72
2023/12/28 05:01:31;;;;;;;2.90;1.50;;;;;;;8.30;100.00;100423.28;6051710;28;20034;-73
2023/12/28 05:04:26;;;;;;;3.42;1.33;;;;;;;8.31;100.00;100422.31;6049411;28;20136;-72
2023/12/28 05:07:21;;;;;;;3.83;1.33;;;;;;;8.42;100.00;100431.09;6051267;28;20048;-73
2023/12/28 05:10:17;;;;;;;2.80;1.27;;;;;;;8.35;100.00;100423.69;6050038;28;20037;-72
2023/12/28 05:13:12;;;;;;;3.63;1.37;;;;;;;8.42;100.00;100442.50;6050797;28;20041;-73
2023/12/28 05:16:07;;;;;;;4.27;1.50;;;;;;;8.44;100.00;100432.59;6053002;28;20268;-72
2023/12/28 05:19:03;;;;;;;3.95;1.42;;;;;;;8.42;100.00;100431.91;6054758;28;20032;-73
2023/12/28 05:22:02;;;;;;;2.57;1.43;;;;;;;8.43;100.00;100443.28;6054473;28;20101;-73
2023/12/28 05:24:58;;;;;;;5.97;1.48;;;;;;;8.45;100.00;100438.72;6052298;28;20277;-72
2023/12/28 05:27:53;;;;;;;7.07;1.50;;;;;;;8.40;100.00;100431.19;6054880;28;20362;-72
2023/12/28 05:30:48;;;;;;;2.43;1.27;;;;;;;8.38;100.00;100441.06;6054084;28;20051;-73
2023/12/28 05:33:44;;;;;;;4.00;1.33;;;;;;;8.43;100.00;100451.22;6050192;28;20365;-72
2023/12/28 05:36:41;;;;;;;2.60;1.23;;;;;;;8.43;100.00;100438.00;6055845;28;20045;-73
2023/12/28 05:39:36;;;;;;;3.58;1.25;;;;;;;8.32;100.00;100447.75;6055138;28;20068;-72
2023/12/28 05:42:32;;;;;;;2.60;1.10;;;;;;;8.33;100.00;100452.06;6054056;28;20481;-72
2023/12/28 05:45:27;;;;;;;3.40;1.30;;;;;;;8.24;100.00;100455.50;6053516;28;20375;-73
2023/12/28 05:48:22;;;;;;;2.23;1.00;;;;;;;8.26;100.00;100445.63;6053133;28;20056;-73
2023/12/28 05:51:18;;;;;;;2.37;0.90;;;;;;;8.30;100.00;100443.59;6054374;28;20125;-73
2023/12/28 05:54:13;;;;;;;11.15;1.70;;;;;;;8.23;100.00;100443.28;6052759;28;20481;-73
2023/12/28 05:57:09;;;;;;;2.33;1.17;;;;;;;8.26;100.00;100458.81;6053190;28;20064;-73
2023/12/28 06:00:06;;;;;;;2.20;1.10;;;;;;;8.25;100.00;100457.19;6053644;28;20772;-72
2023/12/28 06:03:05;;;;;;;3.30;1.48;;;;;;;8.27;100.00;100441.22;6053792;28;20056;-73
2023/12/28 06:06:01;;;;;;;3.85;1.20;;;;;;;8.21;100.00;100455.78;6052612;28;20033;-74
2023/12/28 06:08:56;;;;;;;2.20;1.13;;;;;;;8.22;100.00;100441.59;6053635;28;20030;-72
2023/12/28 06:11:52;;;;;;;4.67;1.50;;;;;;;8.37;100.00;100453.44;6054221;28;20392;-73
2023/12/28 06:14:47;;;;;;;3.13;1.10;;;;;;;8.31;100.00;100467.22;6049739;28;20036;-72
2023/12/28 06:17:42;;;;;;;3.00;1.20;;;;;;;8.44;100.00;100450.25;6053517;28;20038;-73
2023/12/28 06:20:38;;;;;;;5.03;1.30;;;;;;;8.53;100.00;100465.28;6053365;28;20033;-72
2023/12/28 06:23:33;;;;;;;4.10;1.40;;;;;;;8.65;100.00;100464.16;6052598;28;20026;-72
2023/12/28 06:26:29;;;;;;;4.95;1.25;;;;;;;8.68;100.00;100474.47;6052299;28;20315;-73
2023/12/28 06:29:24;;;;;;;2.53;1.15;;;;;;;8.74;100.00;100468.63;6052915;28;20029;-73
2023/12/28 06:32:19;;;;;;;2.40;1.20;;;;;;;8.81;100.00;100496.16;6062238;28;20515;-73
2023/12/28 06:35:15;;;;;;;4.87;1.30;;;;;;;8.87;100.00;100500.88;6060629;28;20284;-74
2023/12/28 06:38:10;;;;;;;4.13;1.60;;;;;;;8.88;100.00;100498.13;6065709;28;20272;-72
2023/12/28 06:41:12;;;;;;;2.03;1.00;;;;;;;8.95;100.00;100499.22;6063187;28;20033;-74
2023/12/28 06:44:08;;;;;;;2.97;1.00;;;;;;;8.96;100.00;100489.47;6061980;28;20053;-72
2023/12/28 06:47:03;;;;;;;4.30;1.10;;;;;;;9.00;100.00;100488.19;6068350;28;20540;-72
2023/12/28 06:49:58;;;;;;;2.20;1.03;;;;;;;8.99;100.00;100483.91;6063714;28;20158;-73
2023/12/28 06:52:54;;;;;;;2.57;1.20;;;;;;;8.97;100.00;100497.25;6065769;28;20045;-73
2023/12/28 06:55:49;;;;;;;2.97;1.00;;;;;;;8.84;100.00;100477.38;6063348;28;20038;-73
2023/12/28 06:58:44;;;;;;;2.13;1.03;;;;;;;8.87;100.00;100495.59;6063021;28;20041;-72
2023/12/28 07:01:40;;;;;;;3.50;1.10;;;;;;;8.86;100.00;100496.56;6063480;28;20055;-72
2023/12/28 07:04:35;;;;;;;2.70;0.97;;;;;;;8.94;100.00;100508.09;6066616;28;20035;-72
2023/12/28 07:07:30;;;;;;;2.83;0.90;;;;;;;8.90;100.00;100511.19;6063585;28;20120;-73
2023/12/28 07:10:26;;;;;;;2.67;1.20;;;;;;;8.91;100.00;100507.56;6062403;28;20108;-73
2023/12/28 07:13:21;;;;;;;4.13;1.20;;;;;;;8.94;100.00;100505.47;6060865;28;20105;-72
2023/12/28 07:16:17;;;;;;;2.17;0.93;;;;;;;8.88;100.00;100503.41;6058500;28;20041;-73
2023/12/28 07:19:13;;;;;;;3.97;1.48;;;;;;;8.87;100.00;100506.19;6060534;28;20302;-72
2023/12/28 07:22:08;;;;;;;1.87;0.97;;;;;;;8.87;100.00;100509.66;6056725;28;20038;-73
2023/12/28 07:25:05;;;;;;;4.17;1.27;;;;;;;8.90;100.00;100525.25;6052072;28;20269;-72
2023/12/28 07:28:00;;;;;;;3.97;1.42;;;;;;;8.86;100.00;100515.06;6063666;28;20389;-74
2023/12/28 07:30:56;;;;;;;1.73;1.00;;;;;;;8.85;100.00;100529.28;6061797;28;20093;-72
2023/12/28 07:33:51;;;;;;;2.05;1.25;;;;;;;8.86;100.00;100525.66;6057597;28;20041;-72
2023/12/28 07:36:47;;;;;;;2.85;1.10;;;;;;;8.84;100.00;100522.31;6063150;28;20117;-72
2023/12/28 07:39:42;;;;;;;4.17;1.20;;;;;;;8.90;100.00;100533.19;6057957;28;20426;-73
2023/12/28 07:42:38;;;;;;;4.15;1.23;;;;;;;8.85;100.00;100535.41;6047729;28;20068;-73
2023/12/28 07:45:34;;;;;;;1.60;0.95;;;;;;;8.78;100.00;100534.28;6048477;28;20504;-72
2023/12/28 07:48:30;;;;;;;3.65;0.95;;;;;;;8.72;100.00;100518.16;6052299;28;20042;-73
2023/12/28 07:51:25;;;;;;;2.05;1.00;;;;;;;8.76;100.00;100530.09;6067016;28;20030;-73
2023/12/28 07:54:21;;;;;;;2.90;1.03;;;;;;;8.82;100.00;100534.84;6062980;28;20036;-72
2023/12/28 07:57:16;;;;;;;2.83;1.10;;;;;;;8.82;100.00;100542.78;6065305;28;20134;-71
2023/12/28 08:00:12;;;;;;;2.53;0.90;;;;;;;8.68;100.00;100527.31;6063263;28;20636;-73
2023/12/28 08:03:07;;;;;;;2.17;1.00;;;;;;;8.67;100.00;100541.53;6077219;28;20261;-73
2023/12/28 08:06:03;;;;;;;3.57;1.07;;;;;;;8.73;100.00;100546.25;6055198;28;20058;-72
2023/12/28 08:09:02;;;;;;;3.90;1.48;;;;;;;8.72;100.00;100537.50;6057068;28;20385;-71
2023/12/28 08:11:57;;;;;;;2.88;1.02;;;;;;;8.76;100.00;100543.31;6061628;28;20034;-72
2023/12/28 08:14:59;;;;;;;4.17;1.03;;;;;;;8.62;100.00;100533.16;6056028;28;20080;-71
2023/12/28 08:17:54;;;;;;;2.97;1.13;;;;;;;8.59;100.00;100528.16;6057658;28;20033;-72
2023/12/28 08:20:50;;;;;;;1.40;0.80;;;;;;;8.52;100.00;100534.97;6061306;28;20033;-72
2023/12/28 08:23:45;;;;;;;2.65;1.10;;;;;;;8.53;100.00;100539.28;6048874;28;20063;-72
2023/12/28 08:26:41;;;;;;;2.07;1.00;;;;;;;8.63;100.00;100559.47;6062559;28;20167;-72
2023/12/28 08:29:36;;;;;;;2.72;1.10;;;;;;;8.67;100.00;100554.75;6051011;28;20296;-73
2023/12/28 08:32:32;;;;;;;2.00;1.10;;;;;;;8.76;100.00;100557.38;6050539;28;20041;-73
2023/12/28 08:35:27;;;;;;;3.73;1.30;;;;;;;8.80;100.00;100561.44;6052924;28;20961;-74
2023/12/28 08:38:22;;;;;;;2.17;0.70;;;;;;;8.78;100.00;100559.88;6060897;28;20034;-74
2023/12/28 08:41:23;;;;;;;3.97;1.20;;;;;;;8.90;100.00;100564.91;6056263;28;20480;-73
2023/12/28 08:44:19;;;;;;;;;;;;;;;8.97;100.00;100552.78;6050915;28;20261;-74
2023/12/28 08:47:14;;;;;;;1.90;0.97;;;;;;;8.95;100.00;100545.97;6053560;28;19913;-73
2023/12/28 08:50:09;;;;;;;2.63;0.93;;;;;;;9.01;100.00;100550.72;6057375;28;20052;-73
2023/12/28 08:53:05;;;;;;;2.50;0.90;;;;;;;9.11;100.00;100555.97;6057132;28;20276;-72
2023/12/28 08:56:00;;;;;;;1.58;0.88;;;;;;;9.14;100.00;100551.25;6062782;28;20033;-72
2023/12/28 08:58:55;;;;;;;2.13;1.00;;;;;;;9.16;100.00;100553.78;6062772;28;20054;-74
2023/12/28 09:01:53;;;;;;;3.67;1.00;;;;;;;9.25;100.00;100564.34;6067506;28;20045;-73
2023/12/28 09:04:48;;;;;;;4.40;1.40;;;;;;;9.34;100.00;100568.78;6053748;28;20044;-74
2023/12/28 09:07:44;;;;;;;4.13;0.97;;;;;;;9.30;100.00;100551.50;6063866;28;20025;-74
2023/12/28 09:10:41;;;;;;;5.03;0.90;;;;;;;9.38;100.00;100564.88;6071743;28;20029;-74
2023/12/28 09:13:36;;;;;;;4.72;1.40;;;;;;;9.38;100.00;100575.44;6063887;28;20029;-75
2023/12/28 09:16:31;;;;;;;2.90;1.50;;;;;;;9.46;100.00;100569.44;6053482;28;20030;-73
2023/12/28 09:19:27;;;;;;;2.20;1.00;;;;;;;9.50;100.00;100558.44;6061452;28;20029;-73
2023/12/28 09:22:22;;;;;;;3.77;1.00;;;;;;;9.56;100.00;100564.97;6060599;28;20040;-72
2023/12/28 09:25:17;;;;;;;2.57;1.10;;;;;;;9.58;100.00;100570.97;6054952;28;20291;-73
2023/12/28 09:28:13;;;;;;;3.47;1.40;;;;;;;9.66;100.00;100572.88;6062734;28;20034;-73
2023/12/28 09:31:08;;;;;;;5.13;1.20;;;;;;;9.65;100.00;100560.66;6065313;28;20116;-73
2023/12/28 09:34:04;;;;;;;1.70;1.20;;;;;;;9.76;100.00;100574.53;6064555;28;20057;-72
2023/12/28 09:36:59;;;;;;;3.53;1.00;;;;;;;9.71;100.00;100555.59;6064675;28;20053;-73
2023/12/28 09:39:55;;;;;;;2.30;1.00;;;;;;;9.81;100.00;100571.47;6060010;28;20100;-73
2023/12/28 09:43:11;;;;;;;4.00;1.10;;;;;;;9.77;100.00;100578.00;6052963;28;20423;-73
2023/12/28 09:46:07;;;;;;;3.15;1.20;;;;;;;9.90;100.00;100573.22;6058748;28;20026;-72
2023/12/28 09:49:03;;;;;;;3.78;1.25;;;;;;;10.05;100.00;100574.44;6064731;28;20034;-73
2023/12/28 09:52:00;;;;;;;2.63;1.25;;;;;;;10.14;100.00;100568.25;6067991;28;20393;-73
2023/12/28 09:54:55;;;;;;;4.15;1.10;;;;;;;10.23;100.00;100572.69;6069158;28;20029;-73
2023/12/28 09:57:51;;;;;;;1.97;1.00;;;;;;;10.27;100.00;100557.34;6065505;28;20037;-73
2023/12/28 10:00:48;;;;;;;2.92;1.27;;;;;;;10.24;100.00;100565.59;6068824;28;20036;-74
2023/12/28 10:03:44;;;;;;;2.25;1.00;;;;;;;10.32;100.00;100569.16;6066558;28;20026;-74
2023/12/28 10:06:39;;;;;;;2.85;1.10;;;;;;;10.36;100.00;100562.56;6061624;28;20034;-75
2023/12/28 10:09:34;;;;;;;7.93;1.35;;;;;;;10.34;100.00;100559.25;6065044;28;20057;-73
2023/12/28 10:12:32;;;;;;;6.63;1.27;;;;;;;10.37;100.00;100574.03;6064711;28;20032;-73
2023/12/28 10:15:27;;;;;;;3.78;1.20;;;;;;;10.24;100.00;100566.44;6068528;28;20279;-74
2023/12/28 10:18:23;;;;;;;2.93;1.00;;;;;;;10.25;100.00;100565.41;6062155;28;20041;-75
2023/12/28 10:21:18;;;;;;;4.13;1.05;;;;;;;10.23;100.00;100570.03;6069791;28;20279;-73
2023/12/28 10:24:13;;;;;;;2.80;1.27;;;;;;;10.21;100.00;100564.06;6070938;28;20075;-75
2023/12/28 10:27:09;;;;;;;5.07;1.10;;;;;;;10.21;100.00;100557.94;6064253;28;20087;-74
2023/12/28 10:30:05;;;;;;;6.53;1.20;;;;;;;10.19;100.00;100557.25;6060596;28;20053;-75
2023/12/28 10:33:00;;;;;;;3.67;1.10;;;;;;;10.11;100.00;100548.16;6062352;28;20025;-74
2023/12/28 10:35:58;;;;;;;3.78;1.50;;;;;;;10.03;100.00;100539.28;6071301;28;20026;-74
2023/12/28 10:38:54;;;;;;;4.15;0.90;;;;;;;9.90;100.00;100517.59;6059651;28;20037;-74
2023/12/28 10:41:51;;;;;;;2.58;1.00;;;;;;;10.03;100.00;100521.56;6062804;28;20022;-75
2023/12/28 10:44:48;;;;;;;3.08;1.15;;;;;;;10.29;100.00;100521.75;6069340;28;20431;-73
2023/12/28 10:47:45;;;;;;;13.15;1.85;;;;;;;10.47;100.00;100527.06;6076260;28;20029;-74
2023/12/28 10:50:49;;;;;;;4.30;1.05;;;;;;;10.73;100.00;100528.00;6081119;28;20026;-73
2023/12/28 10:54:01;;;;;;;5.78;1.23;;;;;;;10.61;100.00;100514.13;6066907;28;20025;-74
2023/12/28 10:57:14;;;;;;;5.53;1.35;;;;;;;10.49;100.00;100525.94;6054501;28;20080;-75
2023/12/28 11:00:14;;;;;;;7.03;1.40;;;;;;;10.50;100.00;100530.25;6048464;28;20046;-74
2023/12/28 11:03:11;;;;;;;4.32;1.05;;;;;;;10.62;100.00;100546.78;6070459;28;20049;-75
2023/12/28 11:06:07;;;;;;;5.43;1.30;;;;;;;10.50;100.00;100538.22;6071057;28;20361;-75
2023/12/28 11:09:03;;;;;;;2.85;1.10;;;;;;;10.56;100.00;100547.38;6059892;28;20053;-73
2023/12/28 11:11:59;;;;;;;5.68;1.50;;;;;;;10.45;100.00;100551.09;6075104;28;20526;-74
2023/12/28 11:14:56;;;;;;;5.82;1.45;;;;;;;10.41;100.00;100544.41;6064019;28;20018;-75
2023/12/28 11:17:52;;;;;;;4.43;1.20;;;;;;;10.40;100.00;100550.72;6065049;28;20033;-74
2023/12/28 11:20:49;;;;;;;6.38;1.27;;;;;;;10.32;100.00;100540.00;6066180;28;20492;-74
2023/12/28 11:23:44;;;;;;;5.53;1.13;;;;;;;10.34;100.00;100559.25;6054640;28;20037;-73
2023/12/28 11:26:39;;;;;;;7.90;1.42;;;;;;;10.33;100.00;100562.88;6063339;28;20461;-75
2023/12/28 11:29:35;;;;;;;8.23;1.60;;;;;;;10.35;100.00;100554.78;6062469;28;20065;-75
2023/12/28 11:32:35;;;;;;;3.97;1.03;;;;;;;10.38;100.00;100560.59;6063056;28;20763;-74
2023/12/28 11:35:40;;;;;;;6.35;1.25;;;;;;;10.44;100.00;100560.00;6066268;28;20362;-75
2023/12/28 11:38:37;;;;;;;5.07;1.15;;;;;;;10.44;100.00;100549.41;6062659;28;20198;-75
2023/12/28 11:41:33;;;;;;;6.20;1.23;;;;;;;10.43;100.00;100536.31;6051628;28;20037;-73
2023/12/28 11:44:29;;;;;;;7.13;1.30;;;;;;;10.38;100.00;100539.41;6065821;28;20033;-73
2023/12/28 11:47:27;;;;;;;5.72;1.33;;;;;;;10.41;100.00;100541.75;6064392;28;20036;-75
2023/12/28 11:50:22;;;;;;;2.15;1.15;;;;;;;10.39;100.00;100541.06;6054136;28;20045;-75
2023/12/28 11:53:18;;;;;;;7.13;1.40;;;;;;;10.42;100.00;100532.81;6065332;28;20026;-74
2023/12/28 11:56:15;;;;;;;11.20;1.60;;;;;;;10.37;100.00;100518.34;6058636;28;20385;-74
2023/12/28 11:59:11;;;;;;;6.05;1.67;;;;;;;10.46;100.00;100531.53;6061109;28;20054;-75
2023/12/28 12:02:07;;;;;;;6.97;1.27;;;;;;;10.51;100.00;100534.59;6057820;28;20030;-74
2023/12/28 12:05:02;;;;;;;4.13;1.13;;;;;;;10.54;100.00;100523.69;6069967;28;20017;-76
2023/12/28 12:07:58;;;;;;;4.40;1.15;;;;;;;10.57;100.00;100515.41;6066701;28;20084;-74
2023/12/28 12:11:04;;;;;;;3.57;1.10;;;;;;;10.64;100.00;100524.44;6063496;28;20036;-74
2023/12/28 12:14:00;;;;;;;7.18;0.88;;;;;;;10.64;100.00;100520.97;6061310;28;20806;-75
2023/12/28 12:16:58;;;;;;;5.25;1.30;;;;;;;10.61;100.00;100521.25;6063733;28;20065;-73
2023/12/28 12:19:55;;;;;;;3.85;1.30;;;;;;;10.65;100.00;100519.97;6063165;28;20110;-74
2023/12/28 12:22:52;;;;;;;6.00;1.10;;;;;;;10.58;100.00;100519.75;6057918;28;20025;-74
2023/12/28 12:25:47;;;;;;;5.20;1.45;;;;;;;10.59;100.00;100513.47;6061413;28;20045;-75
2023/12/28 12:28:42;;;;;;;5.00;1.30;;;;;;;10.63;100.00;100527.22;6065077;28;20388;-72
2023/12/28 12:31:41;;;;;;;7.33;1.20;;;;;;;10.62;100.00;100521.13;6068585;28;20101;-73
2023/12/28 12:34:38;;;;;;;4.47;1.10;;;;;;;10.63;100.00;100522.75;6057340;28;20030;-73
2023/12/28 12:37:34;;;;;;;6.72;1.15;;;;;;;10.70;100.00;100512.41;6061093;28;20485;-74
2023/12/28 12:40:30;;;;;;;6.93;1.77;;;;;;;10.64;100.00;100508.53;6049776;28;20103;-75
2023/12/28 12:43:26;;;;;;;8.75;1.90;;;;;;;10.67;100.00;100516.19;6059995;28;20057;-74
2023/12/28 12:46:23;;;;;;;4.40;1.20;;;;;;;10.63;100.00;100508.66;6060781;28;20037;-74
2023/12/28 12:49:19;;;;;;;8.27;1.38;;;;;;;10.60;100.00;100480.63;6064664;28;20469;-74
2023/12/28 12:52:14;;;;;;;8.75;1.63;;;;;;;10.70;100.00;100491.19;6068065;28;20040;-73
2023/12/28 12:55:13;;;;;;;7.70;2.07;;;;;;;10.70;99.52;100491.19;6054898;28;20551;-75
2023/12/28 12:58:09;;;;;;;8.52;1.50;;;;;;;10.63;99.87;100490.94;6068107;28;20782;-75
2023/12/28 13:01:05;;;;;;;7.32;1.50;;;;;;;10.65;99.03;100488.97;6062741;28;20025;-75
2023/12/28 13:04:00;;;;;;;8.17;1.57;;;;;;;10.57;100.00;100490.75;6061887;28;20072;-74
2023/12/28 13:06:55;;;;;;;5.10;1.20;;;;;;;10.63;99.64;100485.66;6063682;28;20022;-73
2023/12/28 13:09:51;;;;;;;9.70;1.93;;;;;;;10.64;99.36;100489.13;6067666;28;20117;-73
2023/12/28 13:12:46;;;;;;;3.27;0.90;;;;;;;10.69;98.88;100490.34;6056722;28;20361;-73
2023/12/28 13:15:41;;;;;;;7.23;1.10;;;;;;;10.72;98.29;100487.41;6060560;28;20288;-73
2023/12/28 13:18:37;;;;;;;5.55;1.50;;;;;;;10.75;98.55;100489.75;6063665;28;20112;-73
2023/12/28 13:21:32;;;;;;;3.72;1.08;;;;;;;10.71;97.96;100487.53;6061128;28;20022;-75
2023/12/28 13:24:28;;;;;;;5.63;1.20;;;;;;;10.64;98.86;100482.03;6049969;28;20041;-73
2023/12/28 13:27:23;;;;;;;6.23;1.63;;;;;;;10.57;100.00;100491.53;6046210;28;20037;-73
2023/12/28 13:30:19;;;;;;;6.18;1.10;;;;;;;10.61;99.25;100500.88;6064639;28;20055;-73
2023/12/28 13:33:14;;;;;;;7.45;1.38;;;;;;;10.57;99.41;100488.91;6058289;28;20041;-74
2023/12/28 13:36:10;;;;;;;8.03;1.67;;;;;;;10.61;100.00;100495.56;6050329;28;20064;-73
2023/12/28 13:39:06;;;;;;;5.53;1.10;;;;;;;10.58;100.00;100487.09;6072281;28;20513;-74